Estación Meteorológica Peña el Pijo (Robertgarden) [ 02/21/19 11:34:56 CET ]

Fecha Hora Presion(HPa) Temp (°C) Humedad % Rocio (°C) Viento ( m/s) Direccion Lluvia 1Hora(mm) Lluvia 24H(mm) LLuvia Total(mm)
2018-Dec-21 01:01:53 1018.300 0.4 81 -2.5         160.58
2018-Dec-21 02:10:07 1018.500 0.1 82 -2.6         160.58
2018-Dec-21 03:01:42 1018.600 0.1 82 -2.6         160.58
2018-Dec-21 04:03:10 1018.600 -0.2 83 -2.7         160.58
2018-Dec-21 05:01:43 1018.400 -0.7 83 -3.2         160.58
2018-Dec-21 06:01:46 1018.600 -0.9 84 -3.3         160.58
2018-Dec-21 07:01:45 1019.000 -0.8 85 -3.0         160.58
2018-Dec-21 08:01:47 1019.500 -1.1 85 -3.3         160.58
2018-Dec-21 09:01:45 1019.700 -1.0 86 -3.0         160.58
2018-Dec-21 10:01:45 1020.200 3.3 87 1.3         160.58
2018-Dec-21 11:01:43 1020.600 8.9 79 5.4         160.58
2018-Dec-21 12:01:41 1020.100 12.6 60 5.0         160.58
2018-Dec-21 13:01:39 1018.900 14.9 46 3.3         160.58
2018-Dec-21 14:01:46 1018.500 17.3 39 3.2         160.58
2018-Dec-21 15:01:48 1018.300 17.3 39 3.2         160.58
2018-Dec-21 16:01:53 1018.900 15.3 43 2.7         160.58
2018-Dec-21 17:01:49 1019.000 12.5 49 2.0         160.58
2018-Dec-21 18:01:54 1019.400 9.6 55 1.0         160.58
2018-Dec-21 19:01:46 1019.900 6.1 63 -0.4         160.58
2018-Dec-21 20:01:57 1020.300 4.7 68 -0.7         160.58
2018-Dec-21 21:01:56 1020.700 3.6 72 -1.0         160.58
2018-Dec-21 22:01:51 1020.700 2.9 74 -1.3         160.58
2018-Dec-21 23:01:57 1020.600 2.4 76 -1.4         160.58

Temperatura Máxima:17°    Temperatura Mínima:-1°
Presión Máxima:1020.700 Hpa    Presión Mínima:1018.300 Hpa


Volver